Latest Coastal Weather Observations for Neptune Island

IDT60701

Issued at 10:52 am EDT Friday 19 January 2018 (issued every 10 minutes, with the page automatically refreshed every 10 minutes)

About coastal observations | Map of coastal stations | Coastal observations for TAS | Marine services | Other Formats
Station Details ID: 018115 Name: NEPTUNE ISLAND Lat: -35.34 Lon: 136.12 Height: 32.0 m
Data from the previous 72 hours. | See also: Recent months at Neptune Island
Date/Time
EDT
Temp
°C
Wind Pressure Rain since
9am
mm
Weather Cloud Vis
km
Sea
Height
m
Swell
Dir  Spd
kts
Gust
kts
hPa Trend Height
m
Period
s
Dir
19/10:30am 21.8 S 20 24 1008.6 - 0.0 - - - - - - -
19/10:00am 21.6 S 20 25 1008.7 - 0.0 - - - - - - -
19/09:30am 21.9 S 19 23 1008.6 - 0.0 - - - - - - -
19/09:00am 22.1 S 19 22 1008.3 - 0.0 - - - - - - -
19/08:30am 22.5 S 11 13 1008.1 - 0.0 - - - - - - -
19/08:00am 22.3 SSE 11 13 1007.5 - 0.0 - - - - - - -
19/07:30am 22.0 SSE 12 14 1007.1 - 0.0 - - - - - - -
19/07:00am 22.1 S 12 14 1007.3 - 0.0 - - - - - - -
19/06:30am 22.1 S 11 13 1007.1 - 0.0 - - - - - - -
19/06:00am 22.7 SSE 13 15 1006.6 - 0.0 - - - - - - -
19/05:30am 23.4 SSE 14 15 1006.6 - 0.0 - - - - - - -
19/05:00am 24.1 SSE 12 13 1006.9 - 0.0 - - - - - - -
19/04:30am 25.2 ESE 14 15 1006.5 - 0.0 - - - - - - -
19/04:00am 25.6 ESE 14 15 1006.5 - 0.0 - - - - - - -
19/03:30am 25.2 ESE 12 13 1007.0 - 0.0 - - - - - - -
19/03:00am 24.4 ESE 12 14 1007.3 - 0.0 - - - - - - -
19/02:30am 25.2 SE 8 10 1007.5 - 0.0 - - - - - - -
19/02:00am 25.5 SSE 6 7 1007.6 - 0.0 - - - - - - -
19/01:30am 28.8 E 4 5 1007.9 - 0.0 - - - - - - -
19/01:00am 28.8 ENE 4 6 1008.0 - 0.0 - - - - - - -
19/12:30am 29.1 ENE 7 8 1008.2 - 0.0 - - - - - - -
19/12:00am 30.7 NE 7 7 1008.3 - 0.0 - - - - - - -
 
Date/Time
EDT
Temp
°C
Wind Pressure Rain since
9am
mm
Weather Cloud Vis
km
Sea
Height
m
Swell
Dir  Spd
kts
Gust
kts
hPa Trend Height
m
Period
s
Dir
18/11:30pm 30.3 NE 8 9 1008.3 - 0.0 - - - - - - -
18/11:00pm 30.1 NE 8 9 1008.4 - 0.0 - - - - - - -
18/10:30pm 28.9 NNE 9 10 1008.4 - 0.0 - - - - - - -
18/10:00pm 29.0 NNE 8 9 1008.0 - 0.0 - - - - - - -
18/09:30pm 28.7 NNE 9 10 1007.8 - 0.0 - - - - - - -
18/09:00pm 30.7 NE 7 8 1007.6 - 0.0 - - - - - - -
18/08:30pm 31.1 NE 7 8 1007.6 - 0.0 - - - - - - -
18/08:00pm 31.2 NE 7 8 1007.4 - 0.0 - - - - - - -
18/07:30pm 31.0 NE 8 10 1007.4 - 0.0 - - - - - - -
18/07:00pm 31.1 NE 7 10 1007.4 - 0.0 - - - - - - -
18/06:30pm 31.0 NE 7 9 1007.5 - 0.0 - - - - - - -
18/06:00pm 30.7 NE 8 11 1007.5 - 0.0 - - - - - - -
18/05:30pm 31.2 NE 7 11 1007.9 - 0.0 - - - - - - -
18/05:00pm 31.7 NE 7 10 1008.0 - 0.0 - - - - - - -
18/04:30pm 30.2 NE 7 11 1008.3 - 0.0 - - - - - - -
18/04:00pm 30.1 NE 9 13 1008.4 - 0.0 - - - - - - -
18/03:30pm 29.6 NE 8 12 1008.6 - 0.0 - - - - - - -
18/03:00pm 30.9 NNE 9 12 1008.9 - 0.0 - - - - - - -
18/02:30pm 29.0 NE 11 14 1009.1 - 0.0 - - - - - - -
18/02:00pm 27.0 NE 10 12 1009.3 - 0.0 - - - - - - -
18/01:30pm 27.0 N 10 13 1009.6 - 0.0 - - - - - - -
18/01:00pm 25.0 NE 12 15 1009.5 - 0.0 - - - - - - -
18/12:30pm 25.3 NE 14 16 1009.6 - 0.0 - - - - - - -
18/12:00pm 25.0 NNE 14 16 1009.6 - 0.0 - - - - - - -
18/11:30am 25.2 NNE 17 19 1009.6 - 0.0 - - - - - - -
18/11:00am 25.1 NNE 15 17 1009.7 - 0.0 - - - - - - -
18/10:30am 24.1 NNE 13 15 1009.7 - 0.0 - - - - - - -
18/10:00am 24.1 NNE 17 19 1009.5 - 0.0 - - - - - - -
18/09:30am 23.5 NNE 17 18 1009.5 - - - - - - - - -
18/09:00am 22.7 NE 16 18 1009.6 - - - - - - - - -
18/08:30am 21.9 NE 14 17 1009.5 - - - - - - - - -
18/08:00am 21.7 NE 11 14 1009.3 - - - - - - - - -
18/07:30am 21.7 NE 10 13 1009.1 - - - - - - - - -
18/07:00am 21.5 NE 10 13 1009.0 - - - - - - - - -
18/06:30am 22.0 NE 11 14 1008.9 - - - - - - - - -
18/06:00am 21.7 NE 11 14 1008.8 - - - - - - - - -
18/05:30am 22.2 ENE 13 16 1008.8 - - - - - - - - -
18/05:00am 22.4 NE 10 12 1009.1 - - - - - - - - -
18/04:30am 22.5 ENE 14 16 1009.2 - - - - - - - - -
18/04:00am 22.8 ENE 14 16 1009.4 - - - - - - - - -
18/03:30am 24.1 E 12 14 1009.5 - - - - - - - - -
18/03:00am 24.2 E 12 13 1009.6 - - - - - - - - -
18/02:30am 24.1 E 12 13 1009.9 - - - - - - - - -
18/02:00am 23.4 E 12 13 1010.2 - - - - - - - - -
18/01:30am 23.1 - - - 1010.8 - - - - - - - - -
18/12:30am 22.8 E 12 13 1011.3 - 0.0 - - - - - - -
18/12:00am 23.6 E 13 15 1011.5 - 0.0 - - - - - - -
 
Date/Time
EDT
Temp
°C
Wind Pressure Rain since
9am
mm
Weather Cloud Vis
km
Sea
Height
m
Swell
Dir  Spd
kts
Gust
kts
hPa Trend Height
m
Period
s
Dir
17/11:30pm 24.7 E 9 11 1011.6 - 0.0 - - - - - - -
17/11:00pm 24.2 E 10 11 1011.7 - 0.0 - - - - - - -
17/10:30pm 23.8 E 8 9 1011.6 - 0.0 - - - - - - -
17/10:00pm 23.7 E 8 11 1011.5 - 0.0 - - - - - - -
17/09:30pm 23.5 E 9 10 1011.6 - 0.0 - - - - - - -
17/09:00pm 24.8 ESE 8 9 1011.3 - 0.0 - - - - - - -
17/08:30pm 25.4 ESE 7 9 1011.3 - 0.0 - - - - - - -
17/08:00pm 26.1 E 6 7 1011.2 - 0.0 - - - - - - -
17/07:30pm 26.2 E 8 9 1011.1 - 0.0 - - - - - - -
17/07:00pm 26.9 E 7 8 1011.1 - 0.0 - - - - - - -
17/06:30pm 26.7 E 8 8 1011.0 - 0.0 - - - - - - -
17/06:00pm 26.9 E 9 10 1011.2 - 0.0 - - - - - - -
17/05:30pm 25.9 E 10 12 1011.6 - 0.0 - - - - - - -
17/05:00pm 26.6 E 9 11 1011.7 - 0.0 - - - - - - -
17/04:30pm 26.2 E 9 10 1011.9 - 0.0 - - - - - - -
17/04:00pm 25.0 ENE 10 11 1012.0 - 0.0 - - - - - - -
17/03:30pm 24.2 ENE 11 12 1012.1 - 0.0 - - - - - - -
17/03:00pm 23.7 ENE 10 13 1012.3 - 0.0 - - - - - - -
17/02:30pm 23.8 E 12 14 1012.3 - 0.0 - - - - - - -
17/02:00pm 23.2 ENE 12 14 1012.7 - 0.0 - - - - - - -
17/01:30pm 23.2 ENE 11 13 1013.0 - 0.0 - - - - - - -
17/01:00pm 22.6 ENE 10 12 1013.2 - 0.0 - - - - - - -
17/12:30pm 22.7 E 11 12 1013.5 - 0.0 - - - - - - -
17/12:00pm 22.4 E 10 11 1013.6 - 0.0 - - - - - - -
17/11:30am 22.2 E 9 11 1013.8 - 0.0 - - - - - - -
17/11:00am 22.3 E 9 10 1013.9 - 0.0 - - - - - - -
17/10:30am 21.9 E 8 9 1014.0 - 0.0 - - - - - - -
17/10:00am 21.0 E 8 9 1014.1 - 0.0 - - - - - - -
17/09:30am 20.9 E 8 9 1014.0 - 0.0 - - - - - - -
17/09:00am 20.6 ENE 7 8 1014.1 - 0.0 - - - - - - -
17/08:30am 20.1 E 7 8 1014.1 - 0.0 - - - - - - -
17/08:00am 19.6 E 8 10 1014.0 - 0.0 - - - - - - -
17/07:30am 18.9 E 8 10 1013.9 - 0.0 - - - - - - -
17/07:00am 18.0 ESE 8 10 1013.7 - 0.0 - - - - - - -
17/06:30am 18.2 ESE 9 11 1013.7 - 0.0 - - - - - - -
17/06:00am 18.2 SE 11 13 1013.6 - 0.0 - - - - - - -
17/05:30am 18.2 ESE 9 10 1013.8 - 0.0 - - - - - - -
17/05:00am 18.2 E 11 13 1014.0 - 0.0 - - - - - - -
17/04:30am 18.3 ESE 9 11 1014.3 - 0.0 - - - - - - -
17/04:00am 18.3 SE 11 12 1014.4 - 0.0 - - - - - - -
17/03:30am 18.3 SSE 11 13 1014.8 - 0.0 - - - - - - -
17/03:00am 18.4 SSE 11 12 1015.0 - 0.0 - - - - - - -
17/02:30am 18.5 SSE 10 12 1015.2 - 0.0 - - - - - - -
17/02:00am 18.8 SSE 8 10 1015.5 - 0.0 - - - - - - -
17/01:30am 18.8 SSE 8 9 1015.8 - 0.0 - - - - - - -
17/01:00am 19.1 SSE 9 10 1016.2 - 0.0 - - - - - - -
17/12:30am 19.2 SE 11 13 1016.3 - 0.0 - - - - - - -
17/12:00am 19.6 SSE 11 13 1016.4 - 0.0 - - - - - - -
 
Date/Time
EDT
Temp
°C
Wind Pressure Rain since
9am
mm
Weather Cloud Vis
km
Sea
Height
m
Swell
Dir  Spd
kts
Gust
kts
hPa Trend Height
m
Period
s
Dir
16/11:30pm 19.9 SE 12 14 1016.3 - 0.0 - - - - - - -
16/11:00pm 19.9 SE 12 14 1016.3 - 0.0 - - - - - - -
16/10:30pm 19.8 SSE 11 12 1016.1 - 0.0 - - - - - - -
16/10:00pm 19.9 SSE 10 12 1016.1 - 0.0 - - - - - - -
16/09:30pm 20.0 SSE 11 12 1016.2 - 0.0 - - - - - - -
16/09:00pm 20.3 SSE 11 12 1016.2 - 0.0 - - - - - - -
16/08:30pm 20.5 SSE 11 14 1016.2 - 0.0 - - - - - - -
16/08:00pm 20.6 SSE 12 15 1016.3 - 0.0 - - - - - - -
16/07:30pm 20.8 S 13 16 1016.3 - 0.0 - - - - - - -
16/07:00pm 21.3 SSE 14 16 1016.4 - 0.0 - - - - - - -
16/06:30pm 21.5 SSE 14 16 1016.4 - 0.0 - - - - - - -
16/06:00pm 21.7 S 14 16 1016.6 - 0.0 - - - - - - -
16/05:30pm 22.1 S 11 14 1017.0 - 0.0 - - - - - - -
16/05:00pm 21.7 S 12 14 1017.4 - 0.0 - - - - - - -
16/04:30pm 22.2 S 11 13 1017.8 - 0.0 - - - - - - -
16/04:00pm 22.1 S 10 12 1017.9 - 0.0 - - - - - - -
16/03:30pm 21.9 S 10 11 1018.1 - 0.0 - - - - - - -
16/03:00pm 22.0 S 10 12 1018.5 - 0.0 - - - - - - -
16/02:30pm 22.2 SSE 9 11 1018.8 - 0.0 - - - - - - -
16/02:00pm 22.6 SSE 9 11 1019.3 - 0.0 - - - - - - -
16/01:30pm 21.7 SSE 9 11 1019.7 - 0.0 - - - - - - -
16/01:00pm 22.5 SE 11 14 1020.0 - 0.0 - - - - - - -
16/12:30pm 22.5 SE 12 14 1020.2 - 0.0 - - - - - - -
16/12:00pm 21.4 ESE 13 14 1020.5 - 0.0 - - - - - - -
16/11:30am 21.8 ESE 13 15 1020.5 - 0.0 - - - - - - -

Other Formats:

Comma delimited format used in spreadsheet applications
http://www.bom.gov.au/fwo/IDT60701/IDT60701.94804.axf

JavaScript Object Notation format (JSON) in row-major order
http://www.bom.gov.au/fwo/IDT60701/IDT60701.94804.json